RYR47GB EPSY-EGSS
Flight info
| Callsign | RYR47GB |
|---|---|
| Flight time | N/A |
| Altitude | 36000 |
| Route | NIVON Y564 IXIXI L29 ALUKA DCT GARLU DCT NOGRO M40 RINIS |
| Aircraft | B738/M-SDE2E3FGHIRWXY/LB1 |
Departure
| Time | 2026-05-05 16:55 |
|---|---|
| Airport | Olsztyn-Mazury Airport (EPSY) |
Arrival
| Time | N/A |
|---|---|
| Airport | London Stansted Airport (EGSS) |
| Time | Latitude | Longitude | Altitude | Speed | Heading |
|---|---|---|---|---|---|
| 2026-05-05 16:43 | 53.48777 | 20.94514 | 466 ft | 0 kts | 108° |
| 2026-05-05 16:47 | 53.48784 | 20.94476 | 466 ft | 4 kts | 108° |
| 2026-05-05 16:47 | 53.48792 | 20.94439 | 466 ft | 4 kts | 117° |
| 2026-05-05 16:48 | 53.48807 | 20.94413 | 466 ft | 4 kts | 177° |
| 2026-05-05 16:48 | 53.48829 | 20.94419 | 466 ft | 1 kts | 198° |
| 2026-05-05 16:48 | 53.48833 | 20.94422 | 466 ft | 0 kts | 198° |
| 2026-05-05 16:50 | 53.48833 | 20.94421 | 466 ft | 1 kts | 198° |
| 2026-05-05 16:50 | 53.48789 | 20.94395 | 464 ft | 9 kts | 207° |
| 2026-05-05 16:50 | 53.48781 | 20.94294 | 466 ft | 10 kts | 288° |
| 2026-05-05 16:51 | 53.48783 | 20.94181 | 467 ft | 10 kts | 254° |
| 2026-05-05 16:51 | 53.48728 | 20.94075 | 463 ft | 17 kts | 203° |
| 2026-05-05 16:51 | 53.48582 | 20.93991 | 467 ft | 26 kts | 198° |
| 2026-05-05 16:51 | 53.48411 | 20.93895 | 471 ft | 25 kts | 198° |
| 2026-05-05 16:52 | 53.48249 | 20.93804 | 472 ft | 24 kts | 198° |
| 2026-05-05 16:52 | 53.48086 | 20.93712 | 469 ft | 26 kts | 198° |
| 2026-05-05 16:52 | 53.47904 | 20.93610 | 454 ft | 28 kts | 198° |
| 2026-05-05 16:52 | 53.47717 | 20.93505 | 432 ft | 28 kts | 198° |
| 2026-05-05 16:53 | 53.47548 | 20.93410 | 447 ft | 26 kts | 198° |
| 2026-05-05 16:53 | 53.47381 | 20.93316 | 448 ft | 24 kts | 199° |
| 2026-05-05 16:53 | 53.47231 | 20.93235 | 448 ft | 19 kts | 188° |
| 2026-05-05 16:53 | 53.47135 | 20.93244 | 449 ft | 9 kts | 208° |
| 2026-05-05 16:54 | 53.47151 | 20.93190 | 449 ft | 7 kts | 0° |
| 2026-05-05 16:54 | 53.47270 | 20.93256 | 448 ft | 47 kts | 18° |
| 2026-05-05 16:54 | 53.47821 | 20.93560 | 450 ft | 117 kts | 18° |
| 2026-05-05 16:54 | 53.48774 | 20.94091 | 546 ft | 165 kts | 18° |
| 2026-05-05 16:55 | 53.49840 | 20.94705 | 1357 ft | 162 kts | 20° |
| 2026-05-05 16:55 | 53.50893 | 20.95350 | 2187 ft | 166 kts | 19° |
| 2026-05-05 16:55 | 53.52100 | 20.96006 | 2504 ft | 200 kts | 16° |
| 2026-05-05 16:55 | 53.53559 | 20.96322 | 2842 ft | 219 kts | 353° |
| 2026-05-05 16:56 | 53.55045 | 20.95648 | 3482 ft | 228 kts | 339° |
| 2026-05-05 16:56 | 53.56449 | 20.94124 | 3786 ft | 256 kts | 306° |
| 2026-05-05 16:56 | 53.57293 | 20.91459 | 4571 ft | 261 kts | 296° |
| 2026-05-05 16:56 | 53.58140 | 20.88742 | 5482 ft | 263 kts | 297° |
| 2026-05-05 16:57 | 53.59052 | 20.86041 | 6367 ft | 267 kts | 297° |
| 2026-05-05 16:57 | 53.59997 | 20.83343 | 7279 ft | 268 kts | 296° |
| 2026-05-05 16:57 | 53.60960 | 20.80630 | 8138 ft | 272 kts | 296° |
| 2026-05-05 16:57 | 53.61747 | 20.77753 | 8918 ft | 270 kts | 278° |
| 2026-05-05 16:58 | 53.62021 | 20.74636 | 9815 ft | 269 kts | 274° |
| 2026-05-05 16:58 | 53.62259 | 20.71460 | 10432 ft | 282 kts | 274° |
| 2026-05-05 16:58 | 53.62509 | 20.68028 | 10609 ft | 308 kts | 274° |
| 2026-05-05 16:58 | 53.62782 | 20.64324 | 10896 ft | 327 kts | 274° |
| 2026-05-05 16:59 | 53.63074 | 20.60475 | 11564 ft | 334 kts | 274° |
| 2026-05-05 16:59 | 53.63372 | 20.56577 | 12358 ft | 336 kts | 275° |
| 2026-05-05 16:59 | 53.63673 | 20.52663 | 13101 ft | 339 kts | 275° |
| 2026-05-05 16:59 | 53.63977 | 20.48698 | 13804 ft | 343 kts | 275° |
| 2026-05-05 17:00 | 53.64285 | 20.44685 | 14505 ft | 347 kts | 275° |
| 2026-05-05 17:00 | 53.64596 | 20.40637 | 15230 ft | 349 kts | 275° |
| 2026-05-05 17:00 | 53.64905 | 20.36557 | 15900 ft | 353 kts | 275° |
| 2026-05-05 17:00 | 53.65215 | 20.32489 | 16567 ft | 356 kts | 275° |
| 2026-05-05 17:01 | 53.65529 | 20.28280 | 17247 ft | 359 kts | 275° |
| 2026-05-05 17:01 | 53.65842 | 20.24087 | 17879 ft | 362 kts | 275° |
| 2026-05-05 17:01 | 53.66153 | 20.19919 | 18486 ft | 365 kts | 275° |
| 2026-05-05 17:01 | 53.66472 | 20.15594 | 19090 ft | 369 kts | 275° |
| 2026-05-05 17:02 | 53.66794 | 20.11347 | 19690 ft | 371 kts | 274° |
| 2026-05-05 17:02 | 53.67110 | 20.07002 | 20232 ft | 375 kts | 274° |
| 2026-05-05 17:02 | 53.67427 | 20.02612 | 20751 ft | 379 kts | 274° |
| 2026-05-05 17:02 | 53.67748 | 19.98187 | 21306 ft | 381 kts | 274° |
| 2026-05-05 17:03 | 53.68067 | 19.93734 | 21809 ft | 384 kts | 274° |
| 2026-05-05 17:03 | 53.68162 | 19.89230 | 22275 ft | 386 kts | 265° |
| 2026-05-05 17:03 | 53.67845 | 19.84744 | 22779 ft | 386 kts | 256° |
| 2026-05-05 17:03 | 53.67223 | 19.80330 | 23258 ft | 388 kts | 255° |
| 2026-05-05 17:04 | 53.66568 | 19.75884 | 23719 ft | 391 kts | 255° |
| 2026-05-05 17:04 | 53.65909 | 19.71430 | 24171 ft | 394 kts | 255° |
| 2026-05-05 17:04 | 53.65247 | 19.66936 | 24601 ft | 397 kts | 255° |
| 2026-05-05 17:04 | 53.64584 | 19.62405 | 25030 ft | 399 kts | 255° |
| 2026-05-05 17:05 | 53.63921 | 19.57847 | 25441 ft | 402 kts | 255° |
| 2026-05-05 17:05 | 53.63254 | 19.53254 | 25837 ft | 404 kts | 255° |
| 2026-05-05 17:05 | 53.62584 | 19.48646 | 26210 ft | 407 kts | 255° |
| 2026-05-05 17:05 | 53.61908 | 19.44009 | 26623 ft | 408 kts | 254° |
| 2026-05-05 17:06 | 53.61230 | 19.39359 | 27015 ft | 410 kts | 254° |
| 2026-05-05 17:06 | 53.60545 | 19.34682 | 27368 ft | 412 kts | 254° |
| 2026-05-05 17:06 | 53.59856 | 19.29986 | 27696 ft | 415 kts | 254° |
| 2026-05-05 17:06 | 53.59159 | 19.25258 | 28021 ft | 417 kts | 254° |
| 2026-05-05 17:07 | 53.58458 | 19.20510 | 28352 ft | 419 kts | 254° |
| 2026-05-05 17:07 | 53.57751 | 19.15740 | 28687 ft | 421 kts | 254° |
| 2026-05-05 17:07 | 53.57042 | 19.10970 | 29094 ft | 420 kts | 254° |
| 2026-05-05 17:07 | 53.56335 | 19.06228 | 29574 ft | 417 kts | 254° |
| 2026-05-05 17:08 | 53.55631 | 19.01511 | 30032 ft | 414 kts | 254° |
| 2026-05-05 17:08 | 53.54927 | 18.96819 | 30446 ft | 413 kts | 254° |
| 2026-05-05 17:08 | 53.54223 | 18.92141 | 30827 ft | 412 kts | 254° |
| 2026-05-05 17:08 | 53.53521 | 18.87484 | 31199 ft | 411 kts | 254° |
| 2026-05-05 17:09 | 53.52818 | 18.82833 | 31636 ft | 408 kts | 254° |
| 2026-05-05 17:09 | 53.52124 | 18.78212 | 32034 ft | 407 kts | 255° |
| 2026-05-05 17:09 | 53.51501 | 18.73586 | 32394 ft | 406 kts | 256° |
| 2026-05-05 17:09 | 53.50940 | 18.68947 | 32770 ft | 404 kts | 257° |
| 2026-05-05 17:10 | 53.50412 | 18.64387 | 33152 ft | 402 kts | 257° |
| 2026-05-05 17:10 | 53.49884 | 18.59793 | 33486 ft | 401 kts | 257° |
| 2026-05-05 17:10 | 53.49349 | 18.55196 | 33765 ft | 400 kts | 257° |
| 2026-05-05 17:10 | 53.48809 | 18.50620 | 34148 ft | 398 kts | 257° |
| 2026-05-05 17:11 | 53.48268 | 18.46080 | 34509 ft | 396 kts | 257° |
| 2026-05-05 17:11 | 53.47725 | 18.41560 | 34765 ft | 396 kts | 257° |
| 2026-05-05 17:11 | 53.47174 | 18.37011 | 34971 ft | 398 kts | 257° |
| 2026-05-05 17:11 | 53.46621 | 18.32470 | 35225 ft | 398 kts | 257° |
| 2026-05-05 17:12 | 53.46065 | 18.27924 | 35497 ft | 397 kts | 257° |
| 2026-05-05 17:12 | 53.45508 | 18.23387 | 35733 ft | 397 kts | 257° |
| 2026-05-05 17:12 | 53.44948 | 18.18839 | 35855 ft | 399 kts | 257° |
| 2026-05-05 17:12 | 53.44382 | 18.14259 | 35851 ft | 402 kts | 257° |
| 2026-05-05 17:13 | 53.43241 | 18.05061 | 35854 ft | 401 kts | 257° |
| 2026-05-05 17:13 | 53.42108 | 17.95998 | 35860 ft | 395 kts | 257° |
| 2026-05-05 17:14 | 53.40979 | 17.87016 | 35860 ft | 395 kts | 257° |
| 2026-05-05 17:14 | 53.39842 | 17.78021 | 35865 ft | 394 kts | 257° |
| 2026-05-05 17:15 | 53.38696 | 17.69029 | 35854 ft | 395 kts | 257° |
| 2026-05-05 17:15 | 53.37541 | 17.60026 | 35862 ft | 395 kts | 257° |
| 2026-05-05 17:16 | 53.36381 | 17.51036 | 35856 ft | 395 kts | 257° |
| 2026-05-05 17:16 | 53.35211 | 17.42030 | 35857 ft | 397 kts | 257° |
| 2026-05-05 17:17 | 53.34031 | 17.33000 | 35863 ft | 397 kts | 256° |
| 2026-05-05 17:17 | 53.32846 | 17.23960 | 35855 ft | 398 kts | 256° |
| 2026-05-05 17:18 | 53.31654 | 17.14966 | 35860 ft | 399 kts | 256° |
| 2026-05-05 17:18 | 53.30438 | 17.05839 | 35863 ft | 400 kts | 256° |
| 2026-05-05 17:19 | 53.29234 | 16.96831 | 35861 ft | 400 kts | 256° |
| 2026-05-05 17:19 | 53.28011 | 16.87771 | 35864 ft | 400 kts | 256° |
| 2026-05-05 17:20 | 53.26768 | 16.78722 | 35857 ft | 399 kts | 256° |
| 2026-05-05 17:20 | 53.25523 | 16.69684 | 35859 ft | 399 kts | 256° |
| 2026-05-05 17:21 | 53.24270 | 16.60651 | 35853 ft | 399 kts | 256° |
| 2026-05-05 17:22 | 53.22596 | 16.48647 | 35849 ft | 398 kts | 256° |
| 2026-05-05 17:22 | 53.21336 | 16.39665 | 35859 ft | 397 kts | 256° |
| 2026-05-05 17:23 | 53.20072 | 16.30704 | 35853 ft | 396 kts | 256° |
| 2026-05-05 17:23 | 53.18805 | 16.21774 | 35855 ft | 395 kts | 256° |
| 2026-05-05 17:24 | 53.17532 | 16.12860 | 35845 ft | 395 kts | 256° |
| 2026-05-05 17:24 | 53.16256 | 16.03969 | 35850 ft | 394 kts | 255° |
| 2026-05-05 17:25 | 53.14975 | 15.95091 | 35853 ft | 394 kts | 255° |
| 2026-05-05 17:25 | 53.13688 | 15.86220 | 35855 ft | 394 kts | 255° |
| 2026-05-05 17:26 | 53.12394 | 15.77364 | 35865 ft | 394 kts | 255° |
| 2026-05-05 17:26 | 53.11092 | 15.68515 | 35855 ft | 394 kts | 255° |
| 2026-05-05 17:27 | 53.09783 | 15.59665 | 35852 ft | 394 kts | 255° |
| 2026-05-05 17:27 | 53.08470 | 15.50821 | 35862 ft | 394 kts | 255° |
| 2026-05-05 17:28 | 53.07148 | 15.41973 | 35854 ft | 394 kts | 255° |
| 2026-05-05 17:28 | 53.05819 | 15.33125 | 35857 ft | 394 kts | 255° |
| 2026-05-05 17:29 | 53.04493 | 15.24342 | 35876 ft | 394 kts | 255° |
| 2026-05-05 17:29 | 53.03152 | 15.15514 | 35872 ft | 395 kts | 255° |
| 2026-05-05 17:30 | 53.01803 | 15.06676 | 35872 ft | 395 kts | 255° |
| 2026-05-05 17:30 | 53.00446 | 14.97838 | 35875 ft | 395 kts | 255° |
| 2026-05-05 17:31 | 52.99760 | 14.88803 | 35886 ft | 396 kts | 266° |
| 2026-05-05 17:31 | 52.99530 | 14.79650 | 35882 ft | 396 kts | 265° |
| 2026-05-05 17:32 | 52.99281 | 14.70508 | 35872 ft | 396 kts | 265° |
| 2026-05-05 17:32 | 52.99008 | 14.61373 | 35878 ft | 396 kts | 265° |
| 2026-05-05 17:33 | 52.98721 | 14.52240 | 35884 ft | 396 kts | 265° |
| 2026-05-05 17:33 | 52.98422 | 14.43119 | 35875 ft | 395 kts | 264° |
| 2026-05-05 17:34 | 52.97914 | 14.34069 | 35900 ft | 394 kts | 263° |
| 2026-05-05 17:34 | 52.97980 | 14.29503 | 35644 ft | 404 kts | 279° |